createdAt,value
2023-09-29T00:00:32.294Z,16.46
2023-09-29T00:01:32.326Z,16.47
2023-09-29T00:02:32.318Z,16.47
2023-09-29T00:03:32.372Z,16.47
2023-09-29T00:04:32.245Z,16.45
2023-09-29T00:05:32.236Z,16.43
2023-09-29T00:06:32.227Z,16.42
2023-09-29T00:07:32.191Z,16.40
2023-09-29T00:08:32.226Z,16.39
2023-09-29T00:09:32.163Z,16.37
2023-09-29T00:10:32.159Z,16.34
2023-09-29T00:11:32.210Z,16.30
2023-09-29T00:12:32.136Z,16.27
2023-09-29T00:13:32.109Z,16.24
2023-09-29T00:14:32.135Z,16.19
2023-09-29T00:15:32.126Z,16.14
2023-09-29T00:16:32.136Z,16.08
2023-09-29T00:17:32.144Z,16.02
2023-09-29T00:18:32.088Z,15.96
2023-09-29T00:19:32.044Z,15.91
2023-09-29T00:20:32.109Z,15.87
2023-09-29T00:21:32.017Z,15.85
2023-09-29T00:22:31.999Z,15.82
2023-09-29T00:23:32.002Z,15.79
2023-09-29T00:24:31.983Z,15.77
2023-09-29T00:25:31.964Z,15.74
2023-09-29T00:26:31.962Z,15.70
2023-09-29T00:27:31.920Z,15.67
2023-09-29T00:28:31.920Z,15.64
2023-09-29T00:29:31.922Z,15.63
2023-09-29T00:30:31.891Z,15.63
2023-09-29T00:31:31.936Z,15.62
2023-09-29T00:32:31.944Z,15.60
2023-09-29T00:33:31.917Z,15.59
2023-09-29T00:34:31.837Z,15.57
2023-09-29T00:35:31.874Z,15.54
2023-09-29T00:36:31.826Z,15.51
2023-09-29T00:37:31.800Z,15.48
2023-09-29T00:38:31.888Z,15.43
2023-09-29T00:39:31.794Z,15.37
2023-09-29T00:40:31.768Z,15.30
2023-09-29T00:41:31.856Z,15.23
2023-09-29T00:42:31.755Z,15.16
2023-09-29T00:43:31.722Z,15.11
2023-09-29T00:44:31.748Z,15.07
2023-09-29T00:45:31.698Z,15.05
2023-09-29T00:46:31.702Z,15.05
2023-09-29T00:47:31.788Z,15.05
2023-09-29T00:48:31.775Z,15.06
2023-09-29T00:49:31.635Z,15.06
2023-09-29T00:50:31.660Z,15.06
2023-09-29T00:51:31.626Z,15.08
2023-09-29T00:52:31.611Z,15.10
2023-09-29T00:53:31.638Z,15.13
2023-09-29T00:54:31.599Z,15.18
2023-09-29T00:55:31.796Z,15.22
2023-09-29T00:56:31.621Z,15.26
2023-09-29T00:57:31.544Z,15.27
2023-09-29T00:58:31.535Z,15.28
2023-09-29T00:59:31.524Z,15.29
2023-09-29T01:00:31.502Z,15.29
2023-09-29T01:01:31.512Z,15.29
2023-09-29T01:02:31.621Z,15.28
2023-09-29T01:03:31.602Z,15.28
2023-09-29T01:04:31.454Z,15.27
2023-09-29T01:05:31.468Z,15.27
2023-09-29T01:06:31.431Z,15.26
2023-09-29T01:07:31.420Z,15.23
2023-09-29T01:08:31.414Z,15.19
2023-09-29T01:09:31.398Z,15.14
2023-09-29T01:10:31.394Z,15.09
2023-09-29T01:11:31.410Z,15.03
2023-09-29T01:12:31.382Z,14.98
2023-09-29T01:13:31.342Z,14.95
2023-09-29T01:14:31.357Z,14.93
2023-09-29T01:15:31.333Z,14.91
2023-09-29T01:16:31.327Z,14.89
2023-09-29T01:17:31.370Z,14.88
2023-09-29T01:18:31.390Z,14.88
2023-09-29T01:19:31.269Z,14.90
2023-09-29T01:20:31.346Z,14.94
2023-09-29T01:21:31.245Z,14.98
2023-09-29T01:22:31.242Z,15.03
2023-09-29T01:23:31.251Z,15.09
2023-09-29T01:24:31.249Z,15.13
2023-09-29T01:25:31.186Z,15.17
2023-09-29T01:26:31.278Z,15.20
2023-09-29T01:27:31.183Z,15.24
2023-09-29T01:28:31.164Z,15.28
2023-09-29T01:29:31.165Z,15.31
2023-09-29T01:30:31.157Z,15.33
2023-09-29T01:31:31.133Z,15.33
2023-09-29T01:32:31.181Z,15.33
2023-09-29T01:33:31.159Z,15.34
2023-09-29T01:34:31.065Z,15.36
2023-09-29T01:35:31.141Z,15.36
2023-09-29T01:36:31.075Z,15.36
2023-09-29T01:37:31.055Z,15.35
2023-09-29T01:38:31.189Z,15.35
2023-09-29T01:39:31.011Z,15.34
2023-09-29T01:40:31.191Z,15.34
2023-09-29T01:41:31.029Z,15.34
2023-09-29T01:42:30.998Z,15.34
2023-09-29T01:43:30.963Z,15.34
2023-09-29T01:44:31.012Z,15.33
2023-09-29T01:45:30.968Z,15.32
2023-09-29T01:46:30.926Z,15.32
2023-09-29T01:47:30.997Z,15.32
2023-09-29T01:48:30.966Z,15.33
2023-09-29T01:49:30.979Z,15.35
2023-09-29T01:50:30.892Z,15.37
2023-09-29T01:51:30.888Z,15.38
2023-09-29T01:52:30.853Z,15.37
2023-09-29T01:53:30.851Z,15.34
2023-09-29T01:54:30.824Z,15.28
2023-09-29T01:55:30.804Z,15.20
2023-09-29T01:56:30.795Z,15.10
2023-09-29T01:57:30.776Z,15.00
2023-09-29T01:58:30.771Z,14.91
2023-09-29T01:59:30.773Z,14.84
2023-09-29T02:00:30.963Z,14.79
2023-09-29T02:01:30.759Z,14.74
2023-09-29T02:02:30.851Z,14.68
2023-09-29T02:03:30.838Z,14.63
2023-09-29T02:04:30.682Z,14.59
2023-09-29T02:05:30.680Z,14.58
2023-09-29T02:06:30.662Z,14.60
2023-09-29T02:07:30.665Z,14.63
2023-09-29T02:08:30.714Z,14.68
2023-09-29T02:09:30.662Z,14.71
2023-09-29T02:10:30.605Z,14.74
2023-09-29T02:11:30.620Z,14.74
2023-09-29T02:12:30.580Z,14.73
2023-09-29T02:13:30.574Z,14.70
2023-09-29T02:14:30.570Z,14.67
2023-09-29T02:15:30.695Z,14.65
2023-09-29T02:16:30.535Z,14.63
2023-09-29T02:17:30.579Z,14.59
2023-09-29T02:18:30.574Z,14.53
2023-09-29T02:19:30.506Z,14.46
2023-09-29T02:20:30.837Z,14.41
2023-09-29T02:21:30.452Z,14.38
2023-09-29T02:22:30.434Z,14.37
2023-09-29T02:23:30.454Z,14.36
2023-09-29T02:24:30.421Z,14.34
2023-09-29T02:25:30.414Z,14.33
2023-09-29T02:26:30.443Z,14.33
2023-09-29T02:27:30.377Z,14.34
2023-09-29T02:28:30.350Z,14.35
2023-09-29T02:29:30.356Z,14.35
2023-09-29T02:30:30.321Z,14.32
2023-09-29T02:31:30.348Z,14.29
2023-09-29T02:32:30.386Z,14.25
2023-09-29T02:33:30.426Z,14.21
2023-09-29T02:34:30.291Z,14.18
2023-09-29T02:35:30.298Z,14.14
2023-09-29T02:36:30.252Z,14.13
2023-09-29T02:37:30.233Z,14.12
2023-09-29T02:38:30.257Z,14.13
2023-09-29T02:39:30.203Z,14.15
2023-09-29T02:40:30.205Z,14.17
2023-09-29T02:41:30.219Z,14.21
2023-09-29T02:42:30.165Z,14.25
2023-09-29T02:43:30.172Z,14.30
2023-09-29T02:44:30.245Z,14.35
2023-09-29T02:45:30.136Z,14.41
2023-09-29T02:46:30.121Z,14.48
2023-09-29T02:47:30.171Z,14.53
2023-09-29T02:48:30.175Z,14.59
2023-09-29T02:49:30.092Z,14.64
2023-09-29T02:50:30.086Z,14.68
2023-09-29T02:51:30.055Z,14.71
2023-09-29T02:52:30.034Z,14.74
2023-09-29T02:53:30.048Z,14.74
2023-09-29T02:54:30.016Z,14.72
2023-09-29T02:55:30.021Z,14.70
2023-09-29T02:56:30.002Z,14.69
2023-09-29T02:57:30.147Z,14.70
2023-09-29T02:58:29.991Z,14.72
2023-09-29T02:59:30.007Z,14.76
2023-09-29T03:00:29.950Z,14.81
2023-09-29T03:01:29.916Z,14.85
2023-09-29T03:02:30.034Z,14.88
2023-09-29T03:03:30.063Z,14.91
2023-09-29T03:04:29.951Z,14.94
2023-09-29T03:05:29.922Z,14.96
2023-09-29T03:06:29.859Z,14.99
2023-09-29T03:07:29.840Z,15.00
2023-09-29T03:08:29.892Z,15.01
2023-09-29T03:09:29.882Z,15.01
2023-09-29T03:10:29.827Z,15.00
2023-09-29T03:11:29.838Z,14.97
2023-09-29T03:12:29.774Z,14.94
2023-09-29T03:13:29.787Z,14.90
2023-09-29T03:14:29.791Z,14.86
2023-09-29T03:15:29.746Z,14.83
2023-09-29T03:16:29.741Z,14.78
2023-09-29T03:17:29.815Z,14.71
2023-09-29T03:18:29.808Z,14.63
2023-09-29T03:19:29.687Z,14.58
2023-09-29T03:20:30.202Z,14.55
2023-09-29T03:21:29.671Z,14.54
2023-09-29T03:22:29.648Z,14.55
2023-09-29T03:23:29.655Z,14.56
2023-09-29T03:24:30.860Z,14.58
2023-09-29T03:25:29.644Z,14.60
2023-09-29T03:26:29.616Z,14.62
2023-09-29T03:27:29.605Z,14.63
2023-09-29T03:28:29.565Z,14.66
2023-09-29T03:29:29.615Z,14.69
2023-09-29T03:30:29.597Z,14.71
2023-09-29T03:31:29.689Z,14.73
2023-09-29T03:32:29.654Z,14.74
2023-09-29T03:33:29.600Z,14.76
2023-09-29T03:34:29.535Z,14.76
2023-09-29T03:35:29.510Z,14.76
2023-09-29T03:36:29.481Z,14.77
2023-09-29T03:37:29.464Z,14.78
2023-09-29T03:38:29.469Z,14.79
2023-09-29T03:39:29.428Z,14.80
2023-09-29T03:40:29.471Z,14.81
2023-09-29T03:41:29.437Z,14.82
2023-09-29T03:42:29.404Z,14.83
2023-09-29T03:43:29.395Z,14.83
2023-09-29T03:44:29.369Z,14.84
2023-09-29T03:45:29.350Z,14.85
2023-09-29T03:46:29.390Z,14.84
2023-09-29T03:47:29.387Z,14.82
2023-09-29T03:48:29.386Z,14.77
2023-09-29T03:49:29.309Z,14.72
2023-09-29T03:50:29.318Z,14.67
2023-09-29T03:51:29.294Z,14.64
2023-09-29T03:52:29.270Z,14.62
2023-09-29T03:53:29.288Z,14.62
2023-09-29T03:54:29.262Z,14.62
2023-09-29T03:55:29.224Z,14.63
2023-09-29T03:56:29.258Z,14.64
2023-09-29T03:57:29.204Z,14.66
2023-09-29T03:58:29.171Z,14.67
2023-09-29T03:59:29.217Z,14.68
2023-09-29T04:00:29.161Z,14.69
2023-09-29T04:01:29.148Z,14.70
2023-09-29T04:02:29.207Z,14.71
2023-09-29T04:03:29.283Z,14.72
2023-09-29T04:04:29.109Z,14.73
2023-09-29T04:05:29.190Z,14.74
2023-09-29T04:06:29.214Z,14.76
2023-09-29T04:07:29.100Z,14.77
2023-09-29T04:08:29.067Z,14.77
2023-09-29T04:09:29.044Z,14.75
2023-09-29T04:10:29.044Z,14.72
2023-09-29T04:11:29.077Z,14.66
2023-09-29T04:12:29.045Z,14.59
2023-09-29T04:13:28.983Z,14.51
2023-09-29T04:14:34.313Z,14.43
2023-09-29T04:15:28.973Z,14.38
2023-09-29T04:16:28.982Z,14.35
2023-09-29T04:17:29.014Z,14.33
2023-09-29T04:18:28.989Z,14.32
2023-09-29T04:19:28.910Z,14.32
2023-09-29T04:20:28.944Z,14.32
2023-09-29T04:21:28.873Z,14.28
2023-09-29T04:22:28.894Z,14.23
2023-09-29T04:23:28.935Z,14.19
2023-09-29T04:24:28.854Z,14.18
2023-09-29T04:25:28.844Z,14.19
2023-09-29T04:26:28.835Z,14.19
2023-09-29T04:27:28.834Z,14.17
2023-09-29T04:28:28.797Z,14.14
2023-09-29T04:29:28.829Z,14.13
2023-09-29T04:30:28.773Z,14.12
2023-09-29T04:31:28.762Z,14.13
2023-09-29T04:32:28.791Z,14.16
2023-09-29T04:33:28.810Z,14.18
2023-09-29T04:34:28.709Z,14.18
2023-09-29T04:35:28.720Z,14.16
2023-09-29T04:36:28.684Z,14.13
2023-09-29T04:37:28.749Z,14.08
2023-09-29T04:38:28.711Z,14.05
2023-09-29T04:39:28.660Z,14.05
2023-09-29T04:40:28.644Z,14.05
2023-09-29T04:41:28.669Z,14.05
2023-09-29T04:42:28.686Z,14.07
2023-09-29T04:43:28.618Z,14.09
2023-09-29T04:44:28.606Z,14.11
2023-09-29T04:45:28.590Z,14.14
2023-09-29T04:46:28.613Z,14.16
2023-09-29T04:47:28.657Z,14.15
2023-09-29T04:48:28.635Z,14.12
2023-09-29T04:49:28.530Z,14.10
2023-09-29T04:50:28.596Z,14.06
2023-09-29T04:51:28.498Z,14.02
2023-09-29T04:52:28.518Z,14.00
2023-09-29T04:53:28.499Z,13.97
2023-09-29T04:54:28.481Z,13.94
2023-09-29T04:55:28.465Z,13.92
2023-09-29T04:56:28.502Z,13.89
2023-09-29T04:57:28.509Z,13.87
2023-09-29T04:58:28.429Z,13.86
2023-09-29T04:59:28.434Z,13.87
2023-09-29T05:00:28.483Z,13.89
2023-09-29T05:01:28.442Z,13.92
2023-09-29T05:02:28.385Z,13.96
2023-09-29T05:03:28.489Z,14.00
2023-09-29T05:04:28.386Z,14.05
2023-09-29T05:05:28.312Z,14.10
2023-09-29T05:06:28.319Z,14.14
2023-09-29T05:07:28.292Z,14.18
2023-09-29T05:08:28.289Z,14.21
2023-09-29T05:09:28.262Z,14.23
2023-09-29T05:10:28.261Z,14.23
2023-09-29T05:11:30.888Z,14.23
2023-09-29T05:12:28.226Z,14.21
2023-09-29T05:13:28.237Z,14.18
2023-09-29T05:14:28.195Z,14.15
2023-09-29T05:15:28.179Z,14.12
2023-09-29T05:16:28.239Z,14.08
2023-09-29T05:17:40.736Z,14.04
2023-09-29T05:18:28.224Z,14.02
2023-09-29T05:19:28.148Z,14.02
2023-09-29T05:20:28.185Z,14.03
2023-09-29T05:21:28.128Z,14.04
2023-09-29T05:22:28.103Z,14.05
2023-09-29T05:23:28.101Z,14.06
2023-09-29T05:24:28.077Z,14.06
2023-09-29T05:25:28.067Z,14.04
2023-09-29T05:26:28.036Z,13.98
2023-09-29T05:27:28.081Z,13.91
2023-09-29T05:28:28.028Z,13.85
2023-09-29T05:29:28.039Z,13.81
2023-09-29T05:30:28.047Z,13.80
2023-09-29T05:31:28.125Z,13.81
2023-09-29T05:32:29.708Z,13.84
2023-09-29T05:33:28.043Z,13.88
2023-09-29T05:34:27.996Z,13.90
2023-09-29T05:35:27.933Z,13.93
2023-09-29T05:36:27.898Z,13.94
2023-09-29T05:37:27.935Z,13.93
2023-09-29T05:38:27.877Z,13.88
2023-09-29T05:39:27.871Z,13.82
2023-09-29T05:40:27.844Z,13.77
2023-09-29T05:41:27.863Z,13.74
2023-09-29T05:42:40.774Z,13.73
2023-09-29T05:43:27.921Z,13.70
2023-09-29T05:44:27.884Z,13.66
2023-09-29T05:45:27.778Z,13.63
2023-09-29T05:46:27.813Z,13.62
2023-09-29T05:47:27.818Z,13.62
2023-09-29T05:48:27.835Z,13.65
2023-09-29T05:49:27.742Z,13.69
2023-09-29T05:50:27.738Z,13.74
2023-09-29T05:51:27.709Z,13.79
2023-09-29T05:52:27.688Z,13.85
2023-09-29T05:53:27.686Z,13.90
2023-09-29T05:54:27.679Z,13.95
2023-09-29T05:55:27.663Z,13.99
2023-09-29T05:56:27.660Z,14.00
2023-09-29T05:57:28.714Z,13.98
2023-09-29T05:58:27.615Z,13.94
2023-09-29T05:59:27.605Z,13.91
2023-09-29T06:00:27.597Z,13.87
2023-09-29T06:01:27.589Z,13.84
2023-09-29T06:02:27.605Z,13.80
2023-09-29T06:03:29.775Z,13.77
2023-09-29T06:04:27.583Z,13.76
2023-09-29T06:05:27.540Z,13.77
2023-09-29T06:06:27.503Z,13.78
2023-09-29T06:07:27.513Z,13.80
2023-09-29T06:08:38.752Z,13.83
2023-09-29T06:09:27.595Z,13.86
2023-09-29T06:10:27.455Z,13.89
2023-09-29T06:11:27.457Z,13.93
2023-09-29T06:12:27.483Z,13.96
2023-09-29T06:13:27.408Z,14.00
2023-09-29T06:14:27.390Z,14.04
2023-09-29T06:15:27.403Z,14.07
2023-09-29T06:16:27.410Z,14.10
2023-09-29T06:17:27.405Z,14.10
2023-09-29T06:18:27.446Z,14.09
2023-09-29T06:19:27.352Z,14.08
2023-09-29T06:20:27.326Z,14.07
2023-09-29T06:21:27.337Z,14.07
2023-09-29T06:22:27.323Z,14.08
2023-09-29T06:23:27.294Z,14.09
2023-09-29T06:24:27.295Z,14.10
2023-09-29T06:25:27.262Z,14.12
2023-09-29T06:26:27.302Z,14.15
2023-09-29T06:27:27.252Z,14.19
2023-09-29T06:28:27.232Z,14.23
2023-09-29T06:29:27.232Z,14.27
2023-09-29T06:30:27.205Z,14.29
2023-09-29T06:31:27.199Z,14.28
2023-09-29T06:32:27.285Z,14.29
2023-09-29T06:33:27.387Z,14.30
2023-09-29T06:34:27.183Z,14.33
2023-09-29T06:35:27.149Z,14.37
2023-09-29T06:36:27.154Z,14.41
2023-09-29T06:37:27.126Z,14.44
2023-09-29T06:38:27.098Z,14.46
2023-09-29T06:39:27.145Z,14.49
2023-09-29T06:40:27.066Z,14.52
2023-09-29T06:41:27.049Z,14.54
2023-09-29T06:42:27.030Z,14.56
2023-09-29T06:43:27.041Z,14.59
2023-09-29T06:44:27.002Z,14.62
2023-09-29T06:45:29.338Z,14.65
2023-09-29T06:46:27.059Z,14.68
2023-09-29T06:47:26.997Z,14.71
2023-09-29T06:48:27.051Z,14.74
2023-09-29T06:49:26.952Z,14.77
2023-09-29T06:50:26.949Z,14.81
2023-09-29T06:51:26.935Z,14.85
2023-09-29T06:52:26.907Z,14.89
2023-09-29T06:53:26.900Z,14.93
2023-09-29T06:54:26.964Z,14.97
2023-09-29T06:55:26.868Z,15.01
2023-09-29T06:56:26.843Z,15.04
2023-09-29T06:57:27.070Z,15.06
2023-09-29T06:58:26.875Z,15.07
2023-09-29T06:59:26.819Z,15.07
2023-09-29T07:00:26.836Z,15.08
2023-09-29T07:01:26.813Z,15.09
2023-09-29T07:02:26.776Z,15.11
2023-09-29T07:03:26.880Z,15.13
2023-09-29T07:04:26.967Z,15.17
2023-09-29T07:05:26.744Z,15.20
2023-09-29T07:06:26.724Z,15.24
2023-09-29T07:07:26.716Z,15.28
2023-09-29T07:08:26.697Z,15.30
2023-09-29T07:09:26.685Z,15.32
2023-09-29T07:10:26.678Z,15.33
2023-09-29T07:11:26.676Z,15.33
2023-09-29T07:12:26.656Z,15.33
2023-09-29T07:13:26.655Z,15.34
2023-09-29T07:14:26.610Z,15.35
2023-09-29T07:15:26.646Z,15.36
2023-09-29T07:16:26.651Z,15.37
2023-09-29T07:17:26.645Z,15.39
2023-09-29T07:18:26.666Z,15.41
2023-09-29T07:19:28.247Z,15.43
2023-09-29T07:20:26.551Z,15.45
2023-09-29T07:21:26.525Z,15.48
2023-09-29T07:22:26.526Z,15.51
2023-09-29T07:23:26.494Z,15.54
2023-09-29T07:24:26.514Z,15.57
2023-09-29T07:25:26.508Z,15.60
2023-09-29T07:26:26.466Z,15.63
2023-09-29T07:27:26.510Z,15.66
2023-09-29T07:28:26.434Z,15.68
2023-09-29T07:29:26.410Z,15.71
2023-09-29T07:30:26.419Z,15.75
2023-09-29T07:31:26.407Z,15.78
2023-09-29T07:32:26.409Z,15.81
2023-09-29T07:33:26.456Z,15.85
2023-09-29T07:34:26.352Z,15.89
2023-09-29T07:35:26.358Z,15.92
2023-09-29T07:36:26.333Z,15.94
2023-09-29T07:37:26.321Z,15.97
2023-09-29T07:38:26.315Z,15.99
2023-09-29T07:39:26.285Z,16.02
2023-09-29T07:40:26.292Z,16.06
2023-09-29T07:41:26.265Z,16.08
2023-09-29T07:42:26.284Z,16.11
2023-09-29T07:43:26.239Z,16.14
2023-09-29T07:44:26.226Z,16.16
2023-09-29T07:45:26.239Z,16.19
2023-09-29T07:46:26.255Z,16.22
2023-09-29T07:47:26.188Z,16.25
2023-09-29T07:48:26.234Z,16.27
2023-09-29T07:49:26.161Z,16.31
2023-09-29T07:50:26.178Z,16.34
2023-09-29T07:51:26.155Z,16.37
2023-09-29T07:52:26.119Z,16.40
2023-09-29T07:53:26.156Z,16.43
2023-09-29T07:54:26.116Z,16.46
2023-09-29T07:55:26.086Z,16.49
2023-09-29T07:56:26.099Z,16.53
2023-09-29T07:57:26.069Z,16.57
2023-09-29T07:58:26.048Z,16.61
2023-09-29T07:59:26.049Z,16.65
2023-09-29T08:00:26.098Z,16.69
2023-09-29T08:01:26.053Z,16.72
2023-09-29T08:02:26.044Z,16.76
2023-09-29T08:03:26.092Z,16.79
2023-09-29T08:04:26.066Z,16.83
2023-09-29T08:05:25.987Z,16.86
2023-09-29T08:06:25.944Z,16.90
2023-09-29T08:07:25.928Z,16.95
2023-09-29T08:08:25.938Z,17.00
2023-09-29T08:09:25.894Z,17.05
2023-09-29T08:10:25.905Z,17.10
2023-09-29T08:11:25.882Z,17.14
2023-09-29T08:12:25.874Z,17.17
2023-09-29T08:13:25.845Z,17.20
2023-09-29T08:14:25.837Z,17.23
2023-09-29T08:15:25.901Z,17.26
2023-09-29T08:16:25.863Z,17.29
2023-09-29T08:17:25.881Z,17.32
2023-09-29T08:18:25.875Z,17.35
2023-09-29T08:19:25.771Z,17.38
2023-09-29T08:20:25.791Z,17.40
2023-09-29T08:21:25.744Z,17.42
2023-09-29T08:22:37.847Z,17.44
2023-09-29T08:23:25.725Z,17.46
2023-09-29T08:24:25.712Z,17.49
2023-09-29T08:25:25.712Z,17.51
2023-09-29T08:26:25.726Z,17.54
2023-09-29T08:27:25.680Z,17.59
2023-09-29T08:28:25.673Z,17.64
2023-09-29T08:29:25.722Z,17.69
2023-09-29T08:30:25.748Z,17.73
2023-09-29T08:31:25.669Z,17.76
2023-09-29T08:32:25.658Z,17.80
2023-09-29T08:33:36.373Z,17.82
2023-09-29T08:34:25.824Z,17.84
2023-09-29T08:35:25.618Z,17.86
2023-09-29T08:36:25.574Z,17.89
2023-09-29T08:37:25.543Z,17.92
2023-09-29T08:38:25.544Z,17.94
2023-09-29T08:39:25.589Z,17.97
2023-09-29T08:40:25.506Z,18.01
2023-09-29T08:41:25.484Z,18.05
2023-09-29T08:42:25.480Z,18.08
2023-09-29T08:43:25.468Z,18.10
2023-09-29T08:44:25.442Z,18.11
2023-09-29T08:45:25.524Z,18.14
2023-09-29T08:46:25.457Z,18.16
2023-09-29T08:47:25.441Z,18.18
2023-09-29T08:48:25.476Z,18.20
2023-09-29T08:49:32.538Z,18.21
2023-09-29T08:50:25.368Z,18.21
2023-09-29T08:51:26.102Z,18.22
2023-09-29T08:52:25.375Z,18.23
2023-09-29T08:53:25.334Z,18.26
2023-09-29T08:54:25.317Z,18.28
2023-09-29T08:55:25.711Z,18.30
2023-09-29T08:56:25.300Z,18.33
2023-09-29T08:57:25.277Z,18.35
2023-09-29T08:58:25.297Z,18.38
2023-09-29T08:59:25.243Z,18.41
2023-09-29T09:00:25.268Z,18.43
2023-09-29T09:01:25.406Z,18.45
2023-09-29T09:02:25.337Z,18.47
2023-09-29T09:03:25.426Z,18.50
2023-09-29T09:04:25.329Z,18.53
2023-09-29T09:05:25.203Z,18.56
2023-09-29T09:06:25.156Z,18.59
2023-09-29T09:07:25.145Z,18.62
2023-09-29T09:08:25.156Z,18.65
2023-09-29T09:09:25.123Z,18.69
2023-09-29T09:10:33.075Z,18.71
2023-09-29T09:11:25.099Z,18.74
2023-09-29T09:12:25.098Z,18.75
2023-09-29T09:13:25.068Z,18.77
2023-09-29T09:14:25.079Z,18.80
2023-09-29T09:15:25.189Z,18.84
2023-09-29T09:16:25.080Z,18.87
2023-09-29T09:17:25.046Z,18.90
2023-09-29T09:18:25.108Z,18.91
2023-09-29T09:19:25.058Z,18.92
2023-09-29T09:20:25.033Z,18.93
2023-09-29T09:21:24.962Z,18.93
2023-09-29T09:22:38.831Z,18.93
2023-09-29T09:23:24.959Z,18.92
2023-09-29T09:24:25.088Z,18.91
2023-09-29T09:25:24.991Z,18.91
2023-09-29T09:26:24.902Z,18.91
2023-09-29T09:27:24.883Z,18.92
2023-09-29T09:28:24.904Z,18.93
2023-09-29T09:29:24.933Z,18.95
2023-09-29T09:30:25.333Z,18.98
2023-09-29T09:31:24.838Z,19.00
2023-09-29T09:32:24.840Z,19.01
2023-09-29T09:33:24.927Z,19.02
2023-09-29T09:34:24.828Z,19.02
2023-09-29T09:35:24.803Z,19.02
2023-09-29T09:36:24.800Z,19.02
2023-09-29T09:37:24.778Z,19.03
2023-09-29T09:38:24.737Z,19.04
2023-09-29T09:39:24.979Z,19.04
2023-09-29T09:40:24.725Z,19.05
2023-09-29T09:41:24.734Z,19.07
2023-09-29T09:42:24.725Z,19.12
2023-09-29T09:43:24.703Z,19.17
2023-09-29T09:44:24.694Z,19.23
2023-09-29T09:45:24.778Z,19.29
2023-09-29T09:46:24.712Z,19.35
2023-09-29T09:47:24.634Z,19.40
2023-09-29T09:48:24.694Z,19.43
2023-09-29T09:49:24.611Z,19.45
2023-09-29T09:50:24.605Z,19.45
2023-09-29T09:51:24.588Z,19.45
2023-09-29T09:52:24.606Z,19.45
2023-09-29T09:53:24.550Z,19.45
2023-09-29T09:54:24.597Z,19.46
2023-09-29T09:55:25.289Z,19.47
2023-09-29T09:56:24.545Z,19.50
2023-09-29T09:57:24.514Z,19.53
2023-09-29T09:58:24.976Z,19.56
2023-09-29T09:59:24.485Z,19.60
2023-09-29T10:00:24.526Z,19.64
2023-09-29T10:01:25.237Z,19.66
2023-09-29T10:02:24.470Z,19.68
2023-09-29T10:03:24.608Z,19.68
2023-09-29T10:04:24.461Z,19.68
2023-09-29T10:05:24.707Z,19.67
2023-09-29T10:06:24.446Z,19.66
2023-09-29T10:07:24.376Z,19.65
2023-09-29T10:08:24.400Z,19.64
2023-09-29T10:09:24.422Z,19.64
2023-09-29T10:10:24.381Z,19.64
2023-09-29T10:11:24.316Z,19.66
2023-09-29T10:12:24.320Z,19.69
2023-09-29T10:13:24.301Z,19.73
2023-09-29T10:14:24.280Z,19.78
2023-09-29T10:15:24.315Z,19.84
2023-09-29T10:16:24.561Z,19.89
2023-09-29T10:17:24.410Z,19.94
2023-09-29T10:18:24.653Z,19.98
2023-09-29T10:19:24.220Z,20.00
2023-09-29T10:20:24.209Z,20.02
2023-09-29T10:21:24.190Z,20.04
2023-09-29T10:22:24.182Z,20.06
2023-09-29T10:23:24.182Z,20.07
2023-09-29T10:24:24.251Z,20.08
2023-09-29T10:25:24.141Z,20.08
2023-09-29T10:26:24.149Z,20.09
2023-09-29T10:27:24.133Z,20.10
2023-09-29T10:28:24.111Z,20.12
2023-09-29T10:29:24.105Z,20.13
2023-09-29T10:30:24.115Z,20.15
2023-09-29T10:31:24.086Z,20.16
2023-09-29T10:32:24.046Z,20.16
2023-09-29T10:33:24.125Z,20.15
2023-09-29T10:34:24.033Z,20.14
2023-09-29T10:35:24.036Z,20.12
2023-09-29T10:36:23.991Z,20.10
2023-09-29T10:37:24.002Z,20.07
2023-09-29T10:38:23.960Z,20.04
2023-09-29T10:39:24.032Z,20.01
2023-09-29T10:40:23.961Z,19.98
2023-09-29T10:41:34.916Z,19.95
2023-09-29T10:42:23.947Z,19.92
2023-09-29T10:43:23.899Z,19.89
2023-09-29T10:44:23.898Z,19.87
2023-09-29T10:45:23.957Z,19.85
2023-09-29T10:46:23.903Z,19.83
2023-09-29T10:47:23.886Z,19.83
2023-09-29T10:48:23.911Z,19.83
2023-09-29T10:49:23.886Z,19.85
2023-09-29T10:50:23.821Z,19.87
2023-09-29T10:51:23.827Z,19.90
2023-09-29T10:52:23.810Z,19.92
2023-09-29T10:53:23.887Z,19.94
2023-09-29T10:54:23.906Z,19.95
2023-09-29T10:55:24.727Z,19.96
2023-09-29T10:56:23.728Z,19.95
2023-09-29T10:57:23.712Z,19.95
2023-09-29T10:58:23.734Z,19.95
2023-09-29T10:59:23.698Z,19.97
2023-09-29T11:00:23.731Z,20.01
2023-09-29T11:01:23.710Z,20.06
2023-09-29T11:02:23.654Z,20.10
2023-09-29T11:03:23.757Z,20.13
2023-09-29T11:04:23.719Z,20.15
2023-09-29T11:05:23.629Z,20.16
2023-09-29T11:06:23.677Z,20.17
2023-09-29T11:07:23.585Z,20.18
2023-09-29T11:08:30.208Z,20.19
2023-09-29T11:09:23.621Z,20.21
2023-09-29T11:10:23.646Z,20.24
2023-09-29T11:11:23.720Z,20.26
2023-09-29T11:12:23.585Z,20.27
2023-09-29T11:13:23.550Z,20.28
2023-09-29T11:14:24.866Z,20.28
2023-09-29T11:15:23.511Z,20.30
2023-09-29T11:16:23.513Z,20.31
2023-09-29T11:17:23.453Z,20.32
2023-09-29T11:18:23.631Z,20.34
2023-09-29T11:19:23.441Z,20.35
2023-09-29T11:20:23.553Z,20.37
2023-09-29T11:21:23.444Z,20.38
2023-09-29T11:22:23.431Z,20.40
2023-09-29T11:23:23.373Z,20.43
2023-09-29T11:24:23.372Z,20.49
2023-09-29T11:25:23.362Z,20.57
2023-09-29T11:26:23.343Z,20.66
2023-09-29T11:27:23.437Z,20.75
2023-09-29T11:28:23.332Z,20.82
2023-09-29T11:29:23.578Z,20.86
2023-09-29T11:30:23.522Z,20.88
2023-09-29T11:31:23.303Z,20.88
2023-09-29T11:32:23.267Z,20.88
2023-09-29T11:33:23.318Z,20.87
2023-09-29T11:34:23.274Z,20.86
2023-09-29T11:35:23.209Z,20.86
2023-09-29T11:36:23.265Z,20.86
2023-09-29T11:37:23.189Z,20.87
2023-09-29T11:38:23.192Z,20.87
2023-09-29T11:39:23.259Z,20.87
2023-09-29T11:40:23.155Z,20.88
2023-09-29T11:41:23.182Z,20.90
2023-09-29T11:42:23.200Z,20.93
2023-09-29T11:43:23.132Z,20.96
2023-09-29T11:44:23.099Z,21.00
2023-09-29T11:45:23.141Z,21.03
2023-09-29T11:46:23.106Z,21.05
2023-09-29T11:47:23.079Z,21.08
2023-09-29T11:48:23.179Z,21.10
2023-09-29T11:49:23.037Z,21.12
2023-09-29T11:50:23.017Z,21.13
2023-09-29T11:51:23.106Z,21.13
2023-09-29T11:52:22.995Z,21.14
2023-09-29T11:53:23.007Z,21.13
2023-09-29T11:54:23.074Z,21.13
2023-09-29T11:55:22.952Z,21.13
2023-09-29T11:56:22.952Z,21.15
2023-09-29T11:57:23.002Z,21.17
2023-09-29T11:58:22.909Z,21.20
2023-09-29T11:59:22.926Z,21.25
2023-09-29T12:00:22.913Z,21.29
2023-09-29T12:01:23.118Z,21.32
2023-09-29T12:02:23.155Z,21.33
2023-09-29T12:03:22.985Z,21.33
2023-09-29T12:04:22.872Z,21.34
2023-09-29T12:05:22.827Z,21.37
2023-09-29T12:06:22.844Z,21.40
2023-09-29T12:07:22.823Z,21.43
2023-09-29T12:08:22.791Z,21.47
2023-09-29T12:09:22.804Z,21.50
2023-09-29T12:10:22.783Z,21.55
2023-09-29T12:11:22.767Z,21.63
2023-09-29T12:12:22.753Z,21.71
2023-09-29T12:13:22.746Z,21.77
2023-09-29T12:14:22.734Z,21.81
2023-09-29T12:15:22.712Z,21.84
2023-09-29T12:16:22.778Z,21.87
2023-09-29T12:17:22.724Z,21.92
2023-09-29T12:18:22.727Z,22.00
2023-09-29T12:19:22.652Z,22.06
2023-09-29T12:20:22.621Z,22.13
2023-09-29T12:21:22.655Z,22.18
2023-09-29T12:22:22.614Z,22.22
2023-09-29T12:23:22.585Z,22.25
2023-09-29T12:24:22.603Z,22.29
2023-09-29T12:25:22.557Z,22.33
2023-09-29T12:26:22.558Z,22.39
2023-09-29T12:27:22.662Z,22.44
2023-09-29T12:28:22.525Z,22.50
2023-09-29T12:29:22.527Z,22.54
2023-09-29T12:30:22.543Z,22.58
2023-09-29T12:31:22.587Z,22.63
2023-09-29T12:32:22.512Z,22.72
2023-09-29T12:33:22.630Z,22.79
2023-09-29T12:34:22.467Z,22.84
2023-09-29T12:35:22.450Z,22.86
2023-09-29T12:36:22.448Z,22.87
2023-09-29T12:37:22.411Z,22.91
2023-09-29T12:38:22.399Z,22.96
2023-09-29T12:39:22.421Z,23.01
2023-09-29T12:40:22.374Z,23.04
2023-09-29T12:41:23.162Z,23.08
2023-09-29T12:42:22.392Z,23.12
2023-09-29T12:43:22.331Z,23.14
2023-09-29T12:44:22.305Z,23.15
2023-09-29T12:45:22.415Z,23.15
2023-09-29T12:46:22.326Z,23.15
2023-09-29T12:47:22.294Z,23.13
2023-09-29T12:48:22.957Z,23.12
2023-09-29T12:49:22.341Z,23.10
2023-09-29T12:50:22.467Z,23.08
2023-09-29T12:51:27.979Z,23.05
2023-09-29T12:52:22.249Z,23.01